createdAt,value
2022-08-20T00:00:41.722Z,101564.94
2022-08-20T00:05:49.464Z,101552.50
2022-08-20T00:10:56.106Z,101558.75
2022-08-20T00:15:59.525Z,101561.41
2022-08-20T00:21:03.052Z,101563.25
2022-08-20T00:26:09.768Z,101573.06
2022-08-20T00:31:15.267Z,101569.53
2022-08-20T00:36:19.198Z,101570.44
2022-08-20T00:41:26.859Z,101565.09
2022-08-20T00:46:31.662Z,101567.75
2022-08-20T00:51:38.237Z,101560.66
2022-08-20T00:56:44.920Z,101557.06
2022-08-20T01:01:55.658Z,101561.53
2022-08-20T01:06:59.597Z,101557.09
2022-08-20T01:12:05.330Z,101558.81
2022-08-20T01:17:11.078Z,101566.81
2022-08-20T01:22:42.631Z,101567.69
2022-08-20T01:27:48.047Z,101573.94
2022-08-20T01:32:58.394Z,101567.69
2022-08-20T01:38:01.590Z,101573.06
2022-08-20T01:43:06.522Z,101563.22
2022-08-20T01:48:09.849Z,101569.41
2022-08-20T01:53:19.719Z,101582.75
2022-08-20T01:58:24.503Z,101583.63
2022-08-20T02:03:27.679Z,101582.72
2022-08-20T02:08:33.286Z,101580.06
2022-08-20T02:13:38.490Z,101577.38
2022-08-20T02:18:41.821Z,101580.97
2022-08-20T02:23:44.992Z,101581.81
2022-08-20T02:28:51.685Z,101588.03
2022-08-20T02:34:21.762Z,101577.19
2022-08-20T02:39:17.709Z,101588.66
2022-08-20T02:44:22.342Z,101592.13
2022-08-20T02:49:26.124Z,101578.66
2022-08-20T02:54:29.876Z,101586.53
2022-08-20T02:59:34.384Z,101581.16
2022-08-20T03:04:37.346Z,101590.06
2022-08-20T03:09:40.823Z,101591.78
2022-08-20T03:14:45.183Z,101597.06
2022-08-20T03:19:48.201Z,101588.09
2022-08-20T03:24:51.184Z,101591.56
2022-08-20T03:29:58.414Z,101585.22
2022-08-20T03:35:02.394Z,101592.22
2022-08-20T03:40:10.085Z,101600.16
2022-08-20T03:45:18.492Z,101605.31
2022-08-20T03:50:25.801Z,101603.44
2022-08-20T03:55:31.784Z,101612.22
2022-08-20T04:00:39.444Z,101609.63
2022-08-20T04:05:44.199Z,101626.53
2022-08-20T04:10:48.614Z,101626.53
2022-08-20T04:15:55.282Z,101618.41
2022-08-20T04:20:58.547Z,101626.31
2022-08-20T04:26:01.478Z,101623.50
2022-08-20T04:31:05.841Z,101632.25
2022-08-20T04:36:08.851Z,101637.47
2022-08-20T04:41:23.283Z,101629.41
2022-08-20T04:46:29.120Z,101648.75
2022-08-20T04:51:33.425Z,101647.81
2022-08-20T04:56:39.852Z,101645.03
2022-08-20T05:01:44.186Z,101648.59
2022-08-20T05:06:47.239Z,101653.88
2022-08-20T05:11:50.505Z,101672.47
2022-08-20T05:16:57.495Z,101666.19
2022-08-20T05:22:00.803Z,101667.06
2022-08-20T05:27:03.769Z,101673.19
2022-08-20T05:32:08.189Z,101671.31
2022-08-20T05:37:11.389Z,101682.91
2022-08-20T05:42:14.909Z,101687.34
2022-08-20T05:47:19.292Z,101693.56
2022-08-20T05:52:25.171Z,101691.81
2022-08-20T05:57:28.146Z,101697.97
2022-08-20T06:02:49.749Z,101698.03
2022-08-20T06:07:54.847Z,101698.88
2022-08-20T06:13:09.025Z,101698.97
2022-08-20T06:18:27.595Z,101702.53
2022-08-20T06:23:54.499Z,101700.84
2022-08-20T06:28:54.814Z,101704.41
2022-08-20T06:34:00.253Z,101706.28
2022-08-20T06:39:03.282Z,101702.72
2022-08-20T06:44:07.721Z,101701.81
2022-08-20T06:49:12.811Z,101713.34
2022-08-20T06:54:15.767Z,101713.41
2022-08-20T06:59:18.703Z,101715.28
2022-08-20T07:04:23.322Z,101717.13
2022-08-20T07:09:28.289Z,101725.25
2022-08-20T07:14:31.393Z,101729.72
2022-08-20T07:19:37.917Z,101736.94
2022-08-20T07:24:48.992Z,101731.75
2022-08-20T07:30:12.876Z,101748.72
2022-08-20T07:35:20.599Z,101752.38
2022-08-20T07:40:27.963Z,101747.19
2022-08-20T07:45:31.747Z,101755.34
2022-08-20T07:50:36.161Z,101756.53
2022-08-20T07:55:41.558Z,101769.28
2022-08-20T08:01:02.278Z,101766.06
2022-08-20T08:06:29.585Z,101763.63
2022-08-20T08:11:36.041Z,101762.97
2022-08-20T08:16:40.009Z,101767.69
2022-08-20T08:22:28.735Z,101768.81
2022-08-20T08:27:34.548Z,101774.41
2022-08-20T08:32:59.221Z,101765.53
2022-08-20T08:38:04.538Z,101776.34
2022-08-20T08:43:07.633Z,101776.50
2022-08-20T08:48:16.478Z,101774.72
2022-08-20T08:53:27.900Z,101782.84
2022-08-20T08:58:31.989Z,101782.91
2022-08-20T09:03:38.283Z,101778.47
2022-08-20T09:08:46.761Z,101783.72
2022-08-20T09:13:49.879Z,101785.50
2022-08-20T09:18:53.325Z,101789.94
2022-08-20T09:23:57.744Z,101787.22
2022-08-20T09:29:00.901Z,101773.34
2022-08-20T09:34:04.101Z,101767.09
2022-08-20T09:39:10.004Z,101770.41
2022-08-20T09:44:13.105Z,101772.56
2022-08-20T09:49:16.177Z,101768.28
2022-08-20T09:54:22.448Z,101764.56
2022-08-20T09:59:26.806Z,101770.81
2022-08-20T10:04:30.005Z,101768.44
2022-08-20T10:09:35.934Z,101757.28
2022-08-20T10:14:39.018Z,101763.59
2022-08-20T10:19:42.074Z,101764.44
2022-08-20T10:24:46.565Z,101760.56
2022-08-20T10:29:55.302Z,101768.84
2022-08-20T10:35:02.773Z,101767.94
2022-08-20T10:40:09.422Z,101768.91
2022-08-20T10:45:13.840Z,101746.69
2022-08-20T10:50:20.159Z,101770.66
2022-08-20T10:55:24.705Z,101763.47
2022-08-20T11:00:28.019Z,101759.53
2022-08-20T11:05:31.212Z,101764.78
2022-08-20T11:10:36.799Z,101766.28
2022-08-20T11:15:43.505Z,101768.19
2022-08-20T11:20:46.701Z,101762.84
2022-08-20T11:25:51.854Z,101759.22
2022-08-20T11:30:55.011Z,101774.13
2022-08-20T11:35:58.372Z,101775.84
2022-08-20T11:41:02.878Z,101781.19
2022-08-20T11:46:05.994Z,101778.47
2022-08-20T11:51:09.158Z,101774.22
2022-08-20T11:56:16.278Z,101773.38
2022-08-20T12:01:19.821Z,101770.38
2022-08-20T12:06:22.827Z,101767.31
2022-08-20T12:11:27.381Z,101779.25
2022-08-20T12:16:30.656Z,101768.47
2022-08-20T12:21:35.087Z,101762.47
2022-08-20T12:26:40.564Z,101762.25
2022-08-20T12:31:44.788Z,101767.75
2022-08-20T12:36:48.695Z,101758.13
2022-08-20T12:41:54.262Z,101769.59
2022-08-20T12:47:08.515Z,101760.25
2022-08-20T12:52:11.520Z,101765.69
2022-08-20T12:57:18.013Z,101769.22
2022-08-20T13:02:21.004Z,101770.94
2022-08-20T13:07:23.962Z,101768.22
2022-08-20T13:12:28.573Z,101762.19
2022-08-20T13:17:38.677Z,101768.97
2022-08-20T13:22:42.666Z,101760.06
2022-08-20T13:27:47.147Z,101753.31
2022-08-20T13:32:50.601Z,101749.25
2022-08-20T13:37:53.802Z,101763.00
2022-08-20T13:42:58.660Z,101769.66
2022-08-20T13:48:02.542Z,101746.91
2022-08-20T13:53:07.365Z,101764.41
2022-08-20T13:58:11.909Z,101765.16
2022-08-20T14:03:17.763Z,101767.41
2022-08-20T14:08:24.812Z,101757.19
2022-08-20T14:13:29.194Z,101760.56
2022-08-20T14:18:32.271Z,101769.97
2022-08-20T14:23:36.856Z,101764.94
2022-08-20T14:28:41.912Z,101761.16
2022-08-20T14:33:45.169Z,101768.09
2022-08-20T14:38:48.244Z,101756.50
2022-08-20T14:43:52.549Z,101759.16
2022-08-20T14:48:55.564Z,101754.69
2022-08-20T14:53:58.631Z,101761.81
2022-08-20T14:59:02.941Z,101747.13
2022-08-20T15:04:06.236Z,101742.91
2022-08-20T15:09:09.540Z,101758.06
2022-08-20T15:14:15.133Z,101754.16
2022-08-20T15:19:21.856Z,101747.66
2022-08-20T15:24:25.485Z,101757.97
2022-08-20T15:29:30.136Z,101758.03
2022-08-20T15:34:34.933Z,101766.19
2022-08-20T15:39:38.131Z,101753.88
2022-08-20T15:44:44.014Z,101758.09
2022-08-20T15:49:48.519Z,101753.34
2022-08-20T15:54:54.856Z,101753.13
2022-08-20T16:00:10.228Z,101764.28
2022-08-20T16:05:23.661Z,101773.59
2022-08-20T16:10:31.368Z,101770.16
2022-08-20T16:15:40.269Z,101774.69
2022-08-20T16:20:47.928Z,101776.00
2022-08-20T16:26:00.948Z,101775.47
2022-08-20T16:31:08.593Z,101765.72
2022-08-20T16:36:27.744Z,101765.56
2022-08-20T16:41:37.337Z,101763.66
2022-08-20T16:46:51.425Z,101771.72
2022-08-20T16:51:54.956Z,101768.94
2022-08-20T16:57:02.764Z,101774.06
2022-08-20T17:02:10.471Z,101776.41
2022-08-20T17:07:13.784Z,101779.72
2022-08-20T17:12:22.069Z,101777.47
2022-08-20T17:17:28.723Z,101780.38
2022-08-20T17:22:43.027Z,101766.34
2022-08-20T17:27:46.501Z,101776.44
2022-08-20T17:32:59.069Z,101772.34
2022-08-20T17:38:04.036Z,101772.03
2022-08-20T17:43:10.958Z,101768.25
2022-08-20T17:48:19.298Z,101772.94
2022-08-20T17:53:25.175Z,101773.38
2022-08-20T17:58:38.587Z,101767.28
2022-08-20T18:03:42.947Z,101765.84
2022-08-20T18:08:56.828Z,101773.13
2022-08-20T18:14:15.433Z,101777.63
2022-08-20T18:19:36.689Z,101773.22
2022-08-20T18:24:45.488Z,101767.16
2022-08-20T18:29:53.555Z,101769.03
2022-08-20T18:35:09.377Z,101777.28
2022-08-20T18:40:24.511Z,101781.00
2022-08-20T18:45:33.598Z,101773.94
2022-08-20T18:50:47.988Z,101779.28
2022-08-20T18:56:06.382Z,101781.09
2022-08-20T19:01:13.785Z,101780.25
2022-08-20T19:06:40.259Z,101773.13
2022-08-20T19:11:59.014Z,101780.22
2022-08-20T19:17:07.912Z,101774.91
2022-08-20T19:22:17.957Z,101780.22
2022-08-20T19:27:21.850Z,101790.03
2022-08-20T19:32:27.388Z,101782.84
2022-08-20T19:37:51.148Z,101784.63
2022-08-20T19:42:55.839Z,101778.28
2022-08-20T19:48:15.179Z,101787.19
2022-08-20T19:53:30.010Z,101780.84
2022-08-20T19:58:35.528Z,101783.44
2022-08-20T20:03:39.723Z,101775.34
2022-08-20T20:08:59.472Z,101786.88
2022-08-20T20:14:05.376Z,101785.84
2022-08-20T20:19:27.809Z,101788.44
2022-08-20T20:24:43.964Z,101775.00
2022-08-20T20:29:47.124Z,101775.78
2022-08-20T20:34:55.597Z,101769.41
2022-08-20T20:40:07.188Z,101771.13
2022-08-20T20:45:22.180Z,101771.91
2022-08-20T20:50:32.760Z,101768.25
2022-08-20T20:55:39.914Z,101782.38
2022-08-20T21:00:43.047Z,101778.66
2022-08-20T21:05:46.120Z,101773.13
2022-08-20T21:10:50.832Z,101772.03
2022-08-20T21:15:54.136Z,101773.56
2022-08-20T21:20:57.395Z,101770.72
2022-08-20T21:26:02.305Z,101766.06
2022-08-20T21:31:05.917Z,101768.56
2022-08-20T21:36:09.455Z,101768.47
2022-08-20T21:41:15.197Z,101770.06
2022-08-20T21:46:24.842Z,101772.56
2022-08-20T21:51:28.354Z,101774.28
2022-08-20T21:56:33.926Z,101771.50
2022-08-20T22:01:37.080Z,101768.72
2022-08-20T22:06:40.116Z,101764.19
2022-08-20T22:11:44.542Z,101769.44
2022-08-20T22:16:47.574Z,101771.09
2022-08-20T22:21:51.196Z,101761.25
2022-08-20T22:26:55.771Z,101755.72
2022-08-20T22:31:58.720Z,101751.22
2022-08-20T22:37:03.837Z,101755.53
2022-08-20T22:42:08.634Z,101748.31
2022-08-20T22:47:13.824Z,101749.09
2022-08-20T22:52:17.219Z,101748.94
2022-08-20T22:57:21.638Z,101745.41
2022-08-20T23:02:25.591Z,101748.19
2022-08-20T23:07:28.881Z,101747.34
2022-08-20T23:12:33.467Z,101755.31
2022-08-20T23:17:38.057Z,101746.41
2022-08-20T23:22:41.066Z,101740.97
2022-08-20T23:27:48.184Z,101744.44
2022-08-20T23:32:51.753Z,101742.59
2022-08-20T23:37:57.376Z,101729.25
2022-08-20T23:43:01.871Z,101725.63
2022-08-20T23:48:05.394Z,101730.00
2022-08-20T23:53:08.375Z,101724.53
2022-08-20T23:58:12.732Z,101727.09
